createdAt,value
2022-11-16T00:02:24.328Z,9.30
2022-11-16T00:04:53.823Z,9.30
2022-11-16T00:07:24.524Z,9.40
2022-11-16T00:09:54.246Z,9.40
2022-11-16T00:12:22.880Z,9.30
2022-11-16T00:14:52.895Z,9.20
2022-11-16T00:17:21.290Z,9.20
2022-11-16T00:19:49.575Z,9.20
2022-11-16T00:22:18.208Z,9.20
2022-11-16T00:24:47.889Z,9.20
2022-11-16T00:27:16.402Z,9.20
2022-11-16T00:29:44.820Z,9.10
2022-11-16T00:32:14.726Z,9.10
2022-11-16T00:34:43.238Z,9.00
2022-11-16T00:37:11.618Z,9.10
2022-11-16T00:39:39.989Z,9.10
2022-11-16T00:42:08.964Z,9.10
2022-11-16T00:44:37.664Z,9.10
2022-11-16T00:47:06.762Z,9.10
2022-11-16T00:49:38.486Z,9.10
2022-11-16T00:52:14.264Z,9.10
2022-11-16T00:54:44.837Z,9.10
2022-11-16T00:57:20.121Z,9.10
2022-11-16T00:59:48.687Z,9.10
2022-11-16T01:02:18.165Z,9.00
2022-11-16T01:04:48.165Z,9.00
2022-11-16T01:07:16.895Z,9.00
2022-11-16T01:09:45.600Z,9.10
2022-11-16T01:12:16.492Z,9.00
2022-11-16T01:14:47.000Z,9.00
2022-11-16T01:17:16.384Z,8.90
2022-11-16T01:19:44.890Z,9.00
2022-11-16T01:22:14.902Z,9.00
2022-11-16T01:24:44.019Z,8.90
2022-11-16T01:27:12.681Z,8.80
2022-11-16T01:29:41.047Z,8.90
2022-11-16T01:32:09.809Z,8.90
2022-11-16T01:34:38.433Z,8.90
2022-11-16T01:37:06.860Z,8.90
2022-11-16T01:39:36.963Z,8.90
2022-11-16T01:42:06.852Z,8.90
2022-11-16T01:45:00.565Z,9.00
2022-11-16T01:47:29.906Z,9.00
2022-11-16T01:50:05.644Z,9.00
2022-11-16T01:52:39.073Z,9.10
2022-11-16T01:55:09.533Z,9.10
2022-11-16T01:57:42.556Z,9.10
2022-11-16T02:00:14.562Z,9.10
2022-11-16T02:02:43.658Z,9.10
2022-11-16T02:05:15.518Z,9.00
2022-11-16T02:08:21.577Z,9.00
2022-11-16T02:11:22.437Z,9.00
2022-11-16T02:14:02.219Z,9.00
2022-11-16T02:16:42.559Z,9.00
2022-11-16T02:19:53.630Z,9.00
2022-11-16T02:22:39.578Z,9.00
2022-11-16T02:25:14.346Z,9.10
2022-11-16T02:28:21.835Z,9.10
2022-11-16T02:30:55.108Z,9.20
2022-11-16T02:33:32.291Z,9.20
2022-11-16T02:36:03.986Z,9.20
2022-11-16T02:38:37.332Z,9.30
2022-11-16T02:41:11.370Z,9.20
2022-11-16T02:43:45.246Z,9.20
2022-11-16T02:46:22.085Z,9.20
2022-11-16T02:48:55.442Z,9.20
2022-11-16T02:51:25.389Z,9.20
2022-11-16T02:54:03.388Z,9.20
2022-11-16T02:56:31.909Z,9.20
2022-11-16T02:59:01.216Z,9.30
2022-11-16T03:01:36.301Z,9.20
2022-11-16T03:04:15.499Z,9.20
2022-11-16T03:06:46.142Z,9.20
2022-11-16T03:09:20.532Z,9.20
2022-11-16T03:12:00.831Z,9.20
2022-11-16T03:14:36.623Z,9.30
2022-11-16T03:17:14.417Z,9.30
2022-11-16T03:19:47.888Z,9.30
2022-11-16T03:22:24.484Z,9.30
2022-11-16T03:24:53.085Z,9.20
2022-11-16T03:27:31.835Z,9.20
2022-11-16T03:30:07.312Z,9.20
2022-11-16T03:32:44.267Z,9.20
2022-11-16T03:35:19.509Z,9.20
2022-11-16T03:37:52.601Z,9.20
2022-11-16T03:40:22.652Z,9.40
2022-11-16T03:42:51.381Z,9.40
2022-11-16T03:45:21.401Z,9.50
2022-11-16T03:47:51.807Z,9.50
2022-11-16T03:50:20.230Z,9.50
2022-11-16T03:52:48.696Z,9.40
2022-11-16T03:55:17.209Z,9.30
2022-11-16T03:57:45.552Z,9.30
2022-11-16T04:00:14.615Z,9.30
2022-11-16T04:02:43.270Z,9.40
2022-11-16T04:05:31.748Z,9.40
2022-11-16T04:08:17.713Z,9.40
2022-11-16T04:11:03.858Z,9.40
2022-11-16T04:13:52.548Z,9.50
2022-11-16T04:16:39.474Z,9.50
2022-11-16T04:19:26.534Z,9.50
2022-11-16T04:22:17.358Z,9.60
2022-11-16T04:24:48.987Z,9.60
2022-11-16T04:27:35.161Z,9.60
2022-11-16T04:30:05.303Z,9.60
2022-11-16T04:32:52.698Z,9.60
2022-11-16T04:35:38.253Z,9.60
2022-11-16T04:38:07.908Z,9.60
2022-11-16T04:40:36.259Z,9.60
2022-11-16T04:43:05.404Z,9.60
2022-11-16T04:45:51.395Z,9.50
2022-11-16T04:48:22.073Z,9.50
2022-11-16T04:50:50.352Z,9.50
2022-11-16T04:53:22.545Z,9.40
2022-11-16T04:56:00.601Z,9.40
2022-11-16T04:58:29.290Z,9.30
2022-11-16T05:00:57.602Z,9.30
2022-11-16T05:03:25.938Z,9.20
2022-11-16T05:05:54.292Z,9.20
2022-11-16T05:08:25.468Z,9.20
2022-11-16T05:10:53.809Z,9.20
2022-11-16T05:13:22.269Z,9.10
2022-11-16T05:15:50.931Z,9.10
2022-11-16T05:18:19.273Z,9.00
2022-11-16T05:21:01.540Z,9.00
2022-11-16T05:23:49.000Z,9.00
2022-11-16T05:26:17.325Z,9.00
2022-11-16T05:28:45.623Z,9.00
2022-11-16T05:31:14.995Z,9.00
2022-11-16T05:33:43.861Z,9.00
2022-11-16T05:36:12.146Z,9.00
2022-11-16T05:38:41.854Z,9.00
2022-11-16T05:41:10.205Z,9.00
2022-11-16T05:43:38.472Z,9.00
2022-11-16T05:46:07.186Z,9.00
2022-11-16T05:48:35.754Z,9.00
2022-11-16T05:51:04.917Z,8.90
2022-11-16T05:53:33.346Z,8.90
2022-11-16T05:56:03.089Z,8.90
2022-11-16T05:58:32.195Z,8.80
2022-11-16T06:01:00.898Z,8.80
2022-11-16T06:03:30.129Z,8.80
2022-11-16T06:05:59.504Z,8.70
2022-11-16T06:08:27.976Z,8.70
2022-11-16T06:10:57.493Z,8.70
2022-11-16T06:13:27.264Z,8.70
2022-11-16T06:15:55.580Z,8.60
2022-11-16T06:18:23.952Z,8.60
2022-11-16T06:20:52.351Z,8.70
2022-11-16T06:23:21.110Z,8.60
2022-11-16T06:25:54.426Z,8.70
2022-11-16T06:28:23.264Z,8.70
2022-11-16T06:30:53.066Z,8.70
2022-11-16T06:33:21.824Z,8.70
2022-11-16T06:35:50.333Z,8.60
2022-11-16T06:38:19.443Z,8.60
2022-11-16T06:40:49.706Z,8.70
2022-11-16T06:43:18.285Z,8.70
2022-11-16T06:45:50.536Z,8.70
2022-11-16T06:48:21.475Z,8.70
2022-11-16T06:50:50.900Z,8.70
2022-11-16T06:53:21.628Z,8.70
2022-11-16T06:55:53.181Z,8.70
2022-11-16T06:58:21.964Z,8.70
2022-11-16T07:00:50.247Z,8.70
2022-11-16T07:03:19.996Z,8.60
2022-11-16T07:05:48.278Z,8.70
2022-11-16T07:08:16.526Z,8.70
2022-11-16T07:10:44.868Z,8.70
2022-11-16T07:13:13.167Z,8.70
2022-11-16T07:15:41.487Z,8.70
2022-11-16T07:18:09.862Z,8.70
2022-11-16T07:20:40.325Z,8.70
2022-11-16T07:23:13.836Z,8.80
2022-11-16T07:25:42.738Z,8.80
2022-11-16T07:28:11.038Z,8.80
2022-11-16T07:30:39.356Z,8.80
2022-11-16T07:33:07.664Z,8.90
2022-11-16T07:35:35.948Z,8.90
2022-11-16T07:38:05.701Z,9.00
2022-11-16T07:40:34.086Z,9.10
2022-11-16T07:43:02.568Z,9.20
2022-11-16T07:45:31.099Z,9.20
2022-11-16T07:47:59.417Z,9.30
2022-11-16T07:50:29.044Z,9.50
2022-11-16T07:52:57.454Z,9.70
2022-11-16T07:55:31.812Z,9.90
2022-11-16T07:58:00.964Z,10.10
2022-11-16T08:00:29.297Z,10.20
2022-11-16T08:02:58.013Z,10.30
2022-11-16T08:05:26.318Z,10.30
2022-11-16T08:07:54.754Z,10.30
2022-11-16T08:10:23.357Z,10.30
2022-11-16T08:12:53.374Z,10.40
2022-11-16T08:15:21.957Z,10.40
2022-11-16T08:17:50.403Z,10.40
2022-11-16T08:20:19.198Z,10.30
2022-11-16T08:22:47.577Z,10.20
2022-11-16T08:25:15.884Z,10.10
2022-11-16T08:27:45.823Z,10.10
2022-11-16T08:30:16.612Z,10.20
2022-11-16T08:32:45.663Z,10.20
2022-11-16T08:35:14.331Z,10.10
2022-11-16T08:37:45.479Z,10.20
2022-11-16T08:40:14.582Z,10.40
2022-11-16T08:42:43.979Z,10.70
2022-11-16T08:45:12.617Z,10.70
2022-11-16T08:47:44.889Z,10.90
2022-11-16T08:50:13.756Z,11.00
2022-11-16T08:52:42.033Z,11.00
2022-11-16T08:55:13.901Z,11.20
2022-11-16T08:57:42.213Z,11.20
2022-11-16T09:00:12.755Z,11.30
2022-11-16T09:02:42.930Z,11.60
2022-11-16T09:05:11.879Z,11.90
2022-11-16T09:07:40.746Z,11.90
2022-11-16T09:10:10.968Z,12.00
2022-11-16T09:12:41.191Z,12.30
2022-11-16T09:15:12.288Z,12.40
2022-11-16T09:17:42.557Z,12.30
2022-11-16T09:20:11.361Z,12.30
2022-11-16T09:22:39.693Z,12.50
2022-11-16T09:25:11.167Z,12.50
2022-11-16T09:27:39.705Z,12.30
2022-11-16T09:30:11.784Z,12.20
2022-11-16T09:32:42.387Z,11.90
2022-11-16T09:35:11.499Z,11.90
2022-11-16T09:37:39.784Z,11.80
2022-11-16T09:40:12.548Z,12.20
2022-11-16T09:42:54.929Z,12.40
2022-11-16T09:45:34.084Z,12.50
2022-11-16T09:48:07.838Z,12.70
2022-11-16T09:50:49.887Z,12.60
2022-11-16T09:53:34.900Z,12.60
2022-11-16T09:56:07.887Z,12.70
2022-11-16T09:58:43.530Z,12.90
2022-11-16T10:01:25.086Z,13.00
2022-11-16T10:04:03.964Z,13.10
2022-11-16T10:06:45.747Z,13.00
2022-11-16T10:09:14.986Z,13.10
2022-11-16T10:12:11.832Z,13.20
2022-11-16T10:15:16.221Z,12.90
2022-11-16T10:18:09.971Z,12.70
2022-11-16T10:21:11.148Z,12.70
2022-11-16T10:23:59.884Z,12.60
2022-11-16T10:26:35.978Z,12.30
2022-11-16T10:29:34.845Z,12.10
2022-11-16T10:32:16.951Z,12.00
2022-11-16T10:34:57.639Z,12.00
2022-11-16T10:37:32.954Z,12.00
2022-11-16T10:40:04.325Z,12.00
2022-11-16T10:42:39.262Z,12.10
2022-11-16T10:45:18.701Z,12.10
2022-11-16T10:47:54.841Z,12.10
2022-11-16T10:50:35.028Z,12.10
2022-11-16T10:53:04.974Z,12.20
2022-11-16T10:55:33.951Z,12.30
2022-11-16T10:58:05.600Z,12.50
2022-11-16T11:00:48.098Z,12.50
2022-11-16T11:03:16.845Z,12.40
2022-11-16T11:05:53.524Z,12.30
2022-11-16T11:08:31.928Z,12.30
2022-11-16T11:11:23.413Z,12.20
2022-11-16T11:14:11.611Z,12.30
2022-11-16T11:16:41.501Z,12.20
2022-11-16T11:19:26.260Z,12.20
2022-11-16T11:22:01.127Z,12.10
2022-11-16T11:24:44.530Z,12.10
2022-11-16T11:27:14.189Z,12.20
2022-11-16T11:29:44.334Z,12.30
2022-11-16T11:32:23.603Z,12.40
2022-11-16T11:34:56.256Z,12.60
2022-11-16T11:37:30.586Z,12.30
2022-11-16T11:40:24.819Z,12.80
2022-11-16T11:42:58.144Z,13.40
2022-11-16T11:45:43.367Z,13.40
2022-11-16T11:48:29.267Z,13.40
2022-11-16T11:51:02.867Z,13.20
2022-11-16T11:53:53.071Z,13.40
2022-11-16T11:56:23.877Z,13.30
2022-11-16T11:58:52.782Z,13.30
2022-11-16T12:01:56.647Z,13.60
2022-11-16T12:05:02.792Z,13.70
2022-11-16T12:07:47.865Z,13.80
2022-11-16T12:10:26.701Z,13.80
2022-11-16T12:13:16.649Z,14.00
2022-11-16T12:16:04.857Z,13.90
2022-11-16T12:19:01.640Z,14.10
2022-11-16T12:21:43.259Z,14.10
2022-11-16T12:24:32.087Z,14.20
2022-11-16T12:27:13.348Z,14.30
2022-11-16T12:29:57.267Z,14.30
2022-11-16T12:32:51.918Z,14.30
2022-11-16T12:35:39.576Z,14.40
2022-11-16T12:38:27.895Z,13.80
2022-11-16T12:41:43.383Z,13.70
2022-11-16T12:44:13.330Z,13.80
2022-11-16T12:46:55.603Z,13.70
2022-11-16T12:49:58.589Z,13.50
2022-11-16T12:52:48.570Z,13.30
2022-11-16T12:55:28.251Z,13.50
2022-11-16T12:58:12.019Z,13.60
2022-11-16T13:00:54.836Z,13.70
2022-11-16T13:03:36.895Z,13.70
2022-11-16T13:06:11.305Z,13.80
2022-11-16T13:08:51.420Z,14.10
2022-11-16T13:11:27.321Z,14.60
2022-11-16T13:14:01.755Z,14.60
2022-11-16T13:16:39.634Z,15.10
2022-11-16T13:19:15.124Z,15.20
2022-11-16T13:21:52.221Z,15.30
2022-11-16T13:24:46.929Z,15.50
2022-11-16T13:27:29.359Z,15.30
2022-11-16T13:30:05.500Z,15.10
2022-11-16T13:32:53.872Z,15.40
2022-11-16T13:35:24.121Z,15.20
2022-11-16T13:37:53.087Z,15.20
2022-11-16T13:40:28.793Z,15.20
2022-11-16T13:43:17.021Z,14.90
2022-11-16T13:45:55.175Z,15.00
2022-11-16T13:48:30.591Z,15.10
2022-11-16T13:51:04.400Z,15.20
2022-11-16T13:56:29.366Z,15.00
2022-11-16T13:58:59.525Z,14.80
2022-11-16T14:01:59.036Z,14.70
2022-11-16T14:04:57.110Z,14.60
2022-11-16T14:07:41.602Z,14.70
2022-11-16T14:10:11.441Z,14.70
2022-11-16T14:13:00.616Z,14.60
2022-11-16T14:15:35.649Z,14.50
2022-11-16T14:18:37.269Z,14.40
2022-11-16T14:21:37.734Z,14.30
2022-11-16T14:24:21.665Z,14.20
2022-11-16T14:27:04.645Z,14.30
2022-11-16T14:29:54.021Z,14.40
2022-11-16T14:32:26.092Z,14.50
2022-11-16T14:34:57.611Z,14.50
2022-11-16T14:37:37.011Z,14.50
2022-11-16T14:40:15.004Z,14.50
2022-11-16T14:43:15.453Z,14.40
2022-11-16T14:45:41.052Z,14.10
2022-11-16T14:48:18.827Z,14.00
2022-11-16T14:51:12.550Z,13.90
2022-11-16T14:53:47.162Z,13.90
2022-11-16T14:56:20.314Z,14.00
2022-11-16T14:58:56.525Z,13.80
2022-11-16T15:01:29.325Z,13.60
2022-11-16T15:04:02.680Z,13.50
2022-11-16T15:06:36.745Z,13.50
2022-11-16T15:09:06.088Z,13.20
2022-11-16T15:11:58.166Z,13.00
2022-11-16T15:14:31.632Z,12.80
2022-11-16T15:17:01.060Z,12.70
2022-11-16T15:19:31.976Z,12.60
2022-11-16T15:22:02.510Z,12.40
2022-11-16T15:24:32.807Z,12.20
2022-11-16T15:27:34.545Z,11.90
2022-11-16T15:30:14.209Z,11.70
2022-11-16T15:32:44.572Z,11.50
2022-11-16T15:35:20.401Z,11.30
2022-11-16T15:37:49.176Z,11.10
2022-11-16T15:40:18.180Z,10.90
2022-11-16T15:42:49.260Z,10.80
2022-11-16T15:45:24.697Z,10.70
2022-11-16T15:47:57.124Z,10.60
2022-11-16T15:50:26.602Z,10.40
2022-11-16T15:52:59.681Z,10.30
2022-11-16T15:55:39.840Z,10.10
2022-11-16T15:58:22.261Z,10.00
2022-11-16T16:00:54.176Z,9.90
2022-11-16T16:03:25.733Z,9.70
2022-11-16T16:05:54.984Z,9.60
2022-11-16T16:08:33.627Z,9.50
2022-11-16T16:11:13.861Z,9.50
2022-11-16T16:13:46.581Z,9.40
2022-11-16T16:16:28.073Z,9.40
2022-11-16T16:19:03.826Z,9.30
2022-11-16T16:21:44.664Z,9.40
2022-11-16T16:24:42.080Z,9.50
2022-11-16T16:27:17.131Z,9.50
2022-11-16T16:29:48.617Z,9.50
2022-11-16T16:32:26.307Z,9.50
2022-11-16T16:34:55.461Z,9.50
2022-11-16T16:37:24.661Z,9.50
2022-11-16T16:39:55.228Z,9.40
2022-11-16T16:42:23.768Z,9.50
2022-11-16T16:44:54.838Z,9.50
2022-11-16T16:47:24.126Z,9.50
2022-11-16T16:49:52.606Z,9.50
2022-11-16T16:52:21.103Z,9.40
2022-11-16T16:54:49.636Z,9.30
2022-11-16T16:57:19.615Z,9.20
2022-11-16T16:59:50.338Z,9.20
2022-11-16T17:02:20.208Z,9.10
2022-11-16T17:04:48.948Z,9.00
2022-11-16T17:07:18.127Z,8.90
2022-11-16T17:09:47.556Z,8.80
2022-11-16T17:12:16.377Z,8.70
2022-11-16T17:14:51.275Z,8.70
2022-11-16T17:17:21.654Z,8.60
2022-11-16T17:19:50.081Z,8.60
2022-11-16T17:22:19.162Z,8.70
2022-11-16T17:24:47.794Z,8.70
2022-11-16T17:27:16.414Z,8.70
2022-11-16T17:29:44.829Z,8.70
2022-11-16T17:32:13.310Z,8.60
2022-11-16T17:34:43.077Z,8.60
2022-11-16T17:37:11.498Z,8.50
2022-11-16T17:39:40.010Z,8.50
2022-11-16T17:42:08.429Z,8.40
2022-11-16T17:44:38.993Z,8.40
2022-11-16T17:47:09.103Z,8.30
2022-11-16T17:49:37.598Z,8.20
2022-11-16T17:52:09.612Z,8.20
2022-11-16T17:54:39.065Z,8.20
2022-11-16T17:57:07.487Z,8.20
2022-11-16T17:59:36.004Z,8.10
2022-11-16T18:02:04.986Z,8.00
2022-11-16T18:04:34.363Z,8.00
2022-11-16T18:07:02.919Z,7.90
2022-11-16T18:09:34.255Z,7.80
2022-11-16T18:12:04.511Z,7.70
2022-11-16T18:14:34.590Z,7.60
2022-11-16T18:17:03.222Z,7.40
2022-11-16T18:19:32.039Z,7.40
2022-11-16T18:22:00.305Z,7.40
2022-11-16T18:24:28.751Z,7.30
2022-11-16T18:26:58.941Z,7.30
2022-11-16T18:29:27.271Z,7.30
2022-11-16T18:31:55.901Z,7.30
2022-11-16T18:34:24.730Z,7.30
2022-11-16T18:36:56.270Z,7.30
2022-11-16T18:39:25.774Z,7.20
2022-11-16T18:41:57.632Z,7.20
2022-11-16T18:44:28.085Z,7.20
2022-11-16T18:46:57.466Z,7.00
2022-11-16T18:49:26.905Z,7.00
2022-11-16T18:51:56.146Z,7.20
2022-11-16T18:54:25.614Z,7.30
2022-11-16T18:56:57.750Z,7.30
2022-11-16T18:59:26.700Z,7.10
2022-11-16T19:01:55.093Z,7.10
2022-11-16T19:04:29.569Z,6.90
2022-11-16T19:06:59.368Z,6.80
2022-11-16T19:09:28.014Z,6.70
2022-11-16T19:11:58.151Z,6.70
2022-11-16T19:14:26.591Z,6.80
2022-11-16T19:16:57.613Z,6.80
2022-11-16T19:19:27.941Z,6.90
2022-11-16T19:21:57.377Z,6.90
2022-11-16T19:24:27.076Z,6.90
2022-11-16T19:26:55.491Z,7.00
2022-11-16T19:29:33.526Z,6.90
2022-11-16T19:32:02.046Z,6.90
2022-11-16T19:34:33.462Z,7.00
2022-11-16T19:37:02.252Z,7.00
2022-11-16T19:39:31.300Z,7.00
2022-11-16T19:41:59.770Z,7.00
2022-11-16T19:44:31.842Z,7.00
2022-11-16T19:47:01.554Z,6.90
2022-11-16T19:49:30.474Z,6.90
2022-11-16T19:52:01.408Z,6.80
2022-11-16T19:54:30.408Z,6.70
2022-11-16T19:56:58.754Z,6.70
2022-11-16T19:59:27.796Z,6.70
2022-11-16T20:01:58.292Z,6.70
2022-11-16T20:04:33.056Z,6.70
2022-11-16T20:07:01.659Z,6.60
2022-11-16T20:09:30.091Z,6.70
2022-11-16T20:12:02.762Z,6.70
2022-11-16T20:14:31.678Z,6.60
2022-11-16T20:17:01.612Z,6.60
2022-11-16T20:19:29.937Z,6.50
2022-11-16T20:22:00.117Z,6.30
2022-11-16T20:24:30.955Z,6.20
2022-11-16T20:26:59.595Z,6.20
2022-11-16T20:29:35.809Z,6.10
2022-11-16T20:32:05.854Z,6.10
2022-11-16T20:34:34.357Z,6.00
2022-11-16T20:37:03.142Z,6.00
2022-11-16T20:39:31.498Z,6.20
2022-11-16T20:42:06.834Z,6.30
2022-11-16T20:44:35.159Z,6.40
2022-11-16T20:47:06.438Z,6.40
2022-11-16T20:49:38.201Z,6.40
2022-11-16T20:52:08.329Z,6.40
2022-11-16T20:54:42.705Z,6.50
2022-11-16T20:57:11.143Z,6.50
2022-11-16T20:59:39.995Z,6.50
2022-11-16T21:02:11.626Z,6.40
2022-11-16T21:04:40.113Z,6.40
2022-11-16T21:07:08.714Z,6.40
2022-11-16T21:09:57.324Z,6.50
2022-11-16T21:12:44.007Z,6.50
2022-11-16T21:15:13.303Z,6.50
2022-11-16T21:17:44.043Z,6.50
2022-11-16T21:20:30.198Z,6.50
2022-11-16T21:22:58.824Z,6.40
2022-11-16T21:25:29.359Z,6.40
2022-11-16T21:27:59.613Z,6.40
2022-11-16T21:30:28.311Z,6.40
2022-11-16T21:33:01.116Z,6.40
2022-11-16T21:35:29.753Z,6.50
2022-11-16T21:38:10.852Z,6.50
2022-11-16T21:40:40.248Z,6.50
2022-11-16T21:43:08.599Z,6.50
2022-11-16T21:45:36.995Z,6.50
2022-11-16T21:48:07.345Z,6.50
2022-11-16T21:50:36.208Z,6.60
2022-11-16T21:53:06.231Z,6.50
2022-11-16T21:55:36.328Z,6.60
2022-11-16T21:58:05.502Z,6.70
2022-11-16T22:00:36.313Z,6.70
2022-11-16T22:03:09.164Z,6.70
2022-11-16T22:05:55.780Z,6.80
2022-11-16T22:08:25.620Z,6.90
2022-11-16T22:10:54.851Z,7.00
2022-11-16T22:13:26.033Z,7.00
2022-11-16T22:15:56.229Z,7.00
2022-11-16T22:18:31.769Z,7.00
2022-11-16T22:21:01.026Z,7.10
2022-11-16T22:23:30.889Z,7.20
2022-11-16T22:26:04.433Z,7.10
2022-11-16T22:28:37.553Z,7.10
2022-11-16T22:31:09.734Z,7.10
2022-11-16T22:33:41.554Z,7.10
2022-11-16T22:36:13.421Z,7.10
2022-11-16T22:38:42.611Z,7.10
2022-11-16T22:41:12.697Z,7.10
2022-11-16T22:43:41.560Z,7.10
2022-11-16T22:46:12.115Z,7.10
2022-11-16T22:48:43.316Z,7.20
2022-11-16T22:51:19.357Z,7.40
2022-11-16T22:53:48.029Z,7.20
2022-11-16T22:56:16.308Z,7.20
2022-11-16T22:58:46.046Z,7.30
2022-11-16T23:01:14.372Z,7.40
2022-11-16T23:03:44.399Z,7.40
2022-11-16T23:06:16.991Z,7.50
2022-11-16T23:08:47.916Z,7.50
2022-11-16T23:11:36.783Z,7.50
2022-11-16T23:14:25.457Z,7.40
2022-11-16T23:16:55.293Z,7.50
2022-11-16T23:19:43.708Z,7.40
2022-11-16T23:22:34.532Z,7.40
2022-11-16T23:25:21.280Z,7.40
2022-11-16T23:27:56.945Z,7.50
2022-11-16T23:30:25.815Z,7.50
2022-11-16T23:32:54.641Z,7.50
2022-11-16T23:35:25.379Z,7.50
2022-11-16T23:37:56.715Z,7.50
2022-11-16T23:40:27.944Z,7.50
2022-11-16T23:43:14.996Z,7.50
2022-11-16T23:45:44.453Z,7.50
2022-11-16T23:48:15.591Z,7.50
2022-11-16T23:50:46.844Z,7.50
2022-11-16T23:53:17.379Z,7.50
2022-11-16T23:55:45.731Z,7.50
2022-11-16T23:58:16.059Z,7.60
